createdAt,value
2023-03-04T00:00:12.751Z,62.06
2023-03-04T00:02:40.272Z,62.50
2023-03-04T00:05:07.724Z,62.78
2023-03-04T00:07:34.746Z,62.75
2023-03-04T00:10:01.868Z,62.60
2023-03-04T00:12:30.257Z,62.84
2023-03-04T00:14:57.328Z,62.82
2023-03-04T00:17:24.393Z,62.58
2023-03-04T00:19:51.467Z,62.83
2023-03-04T00:22:18.498Z,62.77
2023-03-04T00:24:45.497Z,62.98
2023-03-04T00:27:12.515Z,62.77
2023-03-04T00:29:39.561Z,62.41
2023-03-04T00:32:07.356Z,62.37
2023-03-04T00:34:34.449Z,62.40
2023-03-04T00:37:03.787Z,62.14
2023-03-04T00:39:30.880Z,62.29
2023-03-04T00:41:57.961Z,62.66
2023-03-04T00:44:24.993Z,62.29
2023-03-04T00:46:51.996Z,62.71
2023-03-04T00:49:18.975Z,62.64
2023-03-04T00:51:45.989Z,62.81
2023-03-04T00:54:13.034Z,62.58
2023-03-04T00:56:40.092Z,62.48
2023-03-04T00:59:07.203Z,62.14
2023-03-04T01:01:34.316Z,62.50
2023-03-04T01:04:01.448Z,62.49
2023-03-04T01:06:28.573Z,62.20
2023-03-04T01:08:55.570Z,62.43
2023-03-04T01:11:22.701Z,62.30
2023-03-04T01:13:49.706Z,62.50
2023-03-04T01:16:16.798Z,62.60
2023-03-04T01:18:43.922Z,63.02
2023-03-04T01:21:10.895Z,63.61
2023-03-04T01:23:37.884Z,63.49
2023-03-04T01:26:05.201Z,63.92
2023-03-04T01:28:36.005Z,63.47
2023-03-04T01:31:04.341Z,63.38
2023-03-04T01:33:31.754Z,63.45
2023-03-04T01:35:58.814Z,63.54
2023-03-04T01:38:26.440Z,63.30
2023-03-04T01:40:53.899Z,63.68
2023-03-04T01:43:27.362Z,63.83
2023-03-04T01:45:55.852Z,63.07
2023-03-04T01:48:27.572Z,63.68
2023-03-04T01:50:54.685Z,63.56
2023-03-04T01:53:25.150Z,63.89
2023-03-04T01:55:58.007Z,63.65
2023-03-04T01:58:31.989Z,63.87
2023-03-04T02:00:59.468Z,63.45
2023-03-04T02:03:26.688Z,63.45
2023-03-04T02:05:55.427Z,63.28
2023-03-04T02:08:24.670Z,63.77
2023-03-04T02:10:52.481Z,63.59
2023-03-04T02:13:39.487Z,63.33
2023-03-04T02:16:07.469Z,63.66
2023-03-04T02:18:34.484Z,63.69
2023-03-04T02:21:25.431Z,64.37
2023-03-04T02:24:07.713Z,64.07
2023-03-04T02:26:39.887Z,63.80
2023-03-04T02:29:07.298Z,63.45
2023-03-04T02:31:36.758Z,63.80
2023-03-04T02:34:16.368Z,63.69
2023-03-04T02:36:45.191Z,64.18
2023-03-04T02:39:21.118Z,64.20
2023-03-04T02:41:50.027Z,63.81
2023-03-04T02:44:18.294Z,63.87
2023-03-04T02:46:46.190Z,63.96
2023-03-04T02:49:13.799Z,63.72
2023-03-04T02:51:41.171Z,64.28
2023-03-04T02:54:23.292Z,64.14
2023-03-04T02:56:53.104Z,64.10
2023-03-04T02:59:23.456Z,63.96
2023-03-04T03:01:51.977Z,64.29
2023-03-04T03:04:21.226Z,64.23
2023-03-04T03:06:49.661Z,64.35
2023-03-04T03:09:17.590Z,64.72
2023-03-04T03:11:44.654Z,64.54
2023-03-04T03:14:11.666Z,64.50
2023-03-04T03:16:39.150Z,64.42
2023-03-04T03:19:06.629Z,64.46
2023-03-04T03:21:34.872Z,64.71
2023-03-04T03:24:01.849Z,64.49
2023-03-04T03:26:29.518Z,64.55
2023-03-04T03:28:56.524Z,64.95
2023-03-04T03:31:23.592Z,64.90
2023-03-04T03:33:50.618Z,64.74
2023-03-04T03:36:17.707Z,64.59
2023-03-04T03:38:44.745Z,64.24
2023-03-04T03:41:11.744Z,64.52
2023-03-04T03:43:38.750Z,64.56
2023-03-04T03:46:05.811Z,64.86
2023-03-04T03:48:32.969Z,64.47
2023-03-04T03:51:00.011Z,64.67
2023-03-04T03:53:26.990Z,64.92
2023-03-04T03:55:54.029Z,65.62
2023-03-04T03:58:21.149Z,64.71
2023-03-04T04:00:48.120Z,65.53
2023-03-04T04:03:16.215Z,65.10
2023-03-04T04:05:43.294Z,65.06
2023-03-04T04:08:17.923Z,65.78
2023-03-04T04:10:45.241Z,65.40
2023-03-04T04:13:12.352Z,65.45
2023-03-04T04:15:40.283Z,65.08
2023-03-04T04:18:08.040Z,65.13
2023-03-04T04:20:35.719Z,65.27
2023-03-04T04:23:03.484Z,65.25
2023-03-04T04:25:30.502Z,65.37
2023-03-04T04:27:57.566Z,65.39
2023-03-04T04:30:24.746Z,65.10
2023-03-04T04:32:52.289Z,65.35
2023-03-04T04:35:19.673Z,65.00
2023-03-04T04:37:46.991Z,65.84
2023-03-04T04:40:14.172Z,65.72
2023-03-04T04:42:41.184Z,66.01
2023-03-04T04:45:08.831Z,66.18
2023-03-04T04:47:35.926Z,66.28
2023-03-04T04:50:03.913Z,65.66
2023-03-04T04:52:30.934Z,65.75
2023-03-04T04:54:58.023Z,65.78
2023-03-04T04:57:25.030Z,65.89
2023-03-04T04:59:52.028Z,65.71
2023-03-04T05:02:19.037Z,66.08
2023-03-04T05:04:46.624Z,65.30
2023-03-04T05:07:13.616Z,65.91
2023-03-04T05:09:40.611Z,65.92
2023-03-04T05:12:07.659Z,66.03
2023-03-04T05:14:34.716Z,65.66
2023-03-04T05:17:01.730Z,65.56
2023-03-04T05:19:28.805Z,66.50
2023-03-04T05:21:55.953Z,66.11
2023-03-04T05:24:22.932Z,65.59
2023-03-04T05:26:49.968Z,65.54
2023-03-04T05:29:17.050Z,65.47
2023-03-04T05:31:44.868Z,66.06
2023-03-04T05:34:11.885Z,65.55
2023-03-04T05:36:38.857Z,65.44
2023-03-04T05:39:05.982Z,65.70
2023-03-04T05:41:32.931Z,65.28
2023-03-04T05:43:59.872Z,65.84
2023-03-04T05:46:27.059Z,65.53
2023-03-04T05:48:55.047Z,66.07
2023-03-04T05:51:22.830Z,65.71
2023-03-04T05:53:50.350Z,66.00
2023-03-04T05:56:19.610Z,66.08
2023-03-04T05:58:49.401Z,66.00
2023-03-04T06:01:16.932Z,65.75
2023-03-04T06:03:44.014Z,65.28
2023-03-04T06:06:11.450Z,64.72
2023-03-04T06:08:38.520Z,64.41
2023-03-04T06:11:05.821Z,64.75
2023-03-04T06:13:33.099Z,64.00
2023-03-04T06:16:00.513Z,64.40
2023-03-04T06:18:29.579Z,64.35
2023-03-04T06:20:58.975Z,64.19
2023-03-04T06:23:27.064Z,63.51
2023-03-04T06:25:55.622Z,63.56
2023-03-04T06:28:23.276Z,63.63
2023-03-04T06:30:54.137Z,63.29
2023-03-04T06:33:22.001Z,63.30
2023-03-04T06:35:49.399Z,62.85
2023-03-04T06:38:16.636Z,63.02
2023-03-04T06:40:44.415Z,63.02
2023-03-04T06:43:11.398Z,63.03
2023-03-04T06:45:39.532Z,63.15
2023-03-04T06:48:06.967Z,62.34
2023-03-04T06:50:34.040Z,62.30
2023-03-04T06:53:01.195Z,62.24
2023-03-04T06:55:28.232Z,62.55
2023-03-04T06:57:55.289Z,61.81
2023-03-04T07:00:24.191Z,61.82
2023-03-04T07:02:55.053Z,61.57
2023-03-04T07:05:22.249Z,61.29
2023-03-04T07:07:49.914Z,61.00
2023-03-04T07:10:20.161Z,60.80
2023-03-04T07:12:47.558Z,60.94
2023-03-04T07:15:14.936Z,60.13
2023-03-04T07:17:42.012Z,60.73
2023-03-04T07:20:09.869Z,61.01
2023-03-04T07:22:37.288Z,60.53
2023-03-04T07:25:05.483Z,59.88
2023-03-04T07:27:32.664Z,60.38
2023-03-04T07:29:59.677Z,60.28
2023-03-04T07:32:27.104Z,60.04
2023-03-04T07:34:54.252Z,60.15
2023-03-04T07:37:21.278Z,60.18
2023-03-04T07:39:48.282Z,60.12
2023-03-04T07:42:15.378Z,60.03
2023-03-04T07:44:46.232Z,59.09
2023-03-04T07:47:13.324Z,59.13
2023-03-04T07:49:40.330Z,59.22
2023-03-04T07:52:07.472Z,58.68
2023-03-04T07:54:34.591Z,59.22
2023-03-04T07:57:01.627Z,58.67
2023-03-04T07:59:28.783Z,58.85
2023-03-04T08:01:55.825Z,59.47
2023-03-04T08:04:22.894Z,59.25
2023-03-04T08:06:50.669Z,59.20
2023-03-04T08:09:17.776Z,59.36
2023-03-04T08:11:45.093Z,59.66
2023-03-04T08:14:13.962Z,59.54
2023-03-04T08:16:41.741Z,59.87
2023-03-04T08:19:09.142Z,60.14
2023-03-04T08:21:36.405Z,59.95
2023-03-04T08:24:08.628Z,59.58
2023-03-04T08:26:42.256Z,59.41
2023-03-04T08:29:12.290Z,59.50
2023-03-04T08:31:39.735Z,59.32
2023-03-04T08:34:08.643Z,59.45
2023-03-04T08:36:35.684Z,59.50
2023-03-04T08:39:04.090Z,59.83
2023-03-04T08:41:31.418Z,59.53
2023-03-04T08:43:59.780Z,59.74
2023-03-04T08:46:26.953Z,58.87
2023-03-04T08:48:54.124Z,59.20
2023-03-04T08:51:21.787Z,58.95
2023-03-04T08:53:48.875Z,58.59
2023-03-04T08:56:17.099Z,59.47
2023-03-04T08:58:44.128Z,59.04
2023-03-04T09:01:13.359Z,59.44
2023-03-04T09:03:41.279Z,59.00
2023-03-04T09:06:09.309Z,59.34
2023-03-04T09:08:36.664Z,59.81
2023-03-04T09:11:04.358Z,59.81
2023-03-04T09:13:32.517Z,58.92
2023-03-04T09:16:00.087Z,59.71
2023-03-04T09:18:28.752Z,59.28
2023-03-04T09:20:55.804Z,58.58
2023-03-04T09:23:23.082Z,59.38
2023-03-04T09:25:50.144Z,59.71
2023-03-04T09:28:18.488Z,59.73
2023-03-04T09:30:46.121Z,58.79
2023-03-04T09:33:13.569Z,58.56
2023-03-04T09:35:40.919Z,58.09
2023-03-04T09:38:08.544Z,58.36
2023-03-04T09:40:53.589Z,58.45
2023-03-04T09:43:29.515Z,56.64
2023-03-04T09:46:04.214Z,53.40
2023-03-04T09:48:51.055Z,53.33
2023-03-04T09:51:29.445Z,51.18
2023-03-04T09:54:07.846Z,51.27
2023-03-04T09:56:38.623Z,53.22
2023-03-04T09:59:11.845Z,53.25
2023-03-04T10:01:38.868Z,53.80
2023-03-04T10:04:36.634Z,54.36
2023-03-04T10:07:06.161Z,53.78
2023-03-04T10:09:41.113Z,54.05
2023-03-04T10:12:13.517Z,54.31
2023-03-04T10:14:47.202Z,55.69
2023-03-04T10:17:19.569Z,55.07
2023-03-04T10:20:01.548Z,54.99
2023-03-04T10:22:41.226Z,55.95
2023-03-04T10:25:19.562Z,55.39
2023-03-04T10:27:54.649Z,55.09
2023-03-04T10:30:47.378Z,54.92
2023-03-04T10:33:19.850Z,54.89
2023-03-04T10:36:10.302Z,54.23
2023-03-04T10:38:41.813Z,54.82
2023-03-04T10:41:27.824Z,53.85
2023-03-04T10:44:13.363Z,53.29
2023-03-04T10:46:43.311Z,53.75
2023-03-04T10:49:11.810Z,53.97
2023-03-04T10:51:50.461Z,52.32
2023-03-04T10:54:47.756Z,52.90
2023-03-04T10:57:22.002Z,52.78
2023-03-04T11:00:12.099Z,53.65
2023-03-04T11:02:39.115Z,53.71
2023-03-04T11:05:18.133Z,53.88
2023-03-04T11:07:54.988Z,53.31
2023-03-04T11:10:22.549Z,53.71
2023-03-04T11:12:58.800Z,53.73
2023-03-04T11:15:29.554Z,53.67
2023-03-04T11:18:02.938Z,54.35
2023-03-04T11:20:32.093Z,53.81
2023-03-04T11:23:05.005Z,54.30
2023-03-04T11:25:43.933Z,53.96
2023-03-04T11:28:26.968Z,54.67
2023-03-04T11:30:58.385Z,54.36
2023-03-04T11:33:43.855Z,54.75
2023-03-04T11:36:16.682Z,55.50
2023-03-04T11:38:48.267Z,55.74
2023-03-04T11:41:23.568Z,55.67
2023-03-04T11:43:50.716Z,56.45
2023-03-04T11:46:45.130Z,56.16
2023-03-04T11:49:44.454Z,58.13
2023-03-04T11:52:39.131Z,57.29
2023-03-04T11:55:09.257Z,57.87
2023-03-04T11:58:01.757Z,57.20
2023-03-04T12:00:52.548Z,57.03
2023-03-04T12:03:41.443Z,58.14
2023-03-04T12:06:35.568Z,59.12
2023-03-04T12:09:41.920Z,59.04
2023-03-04T12:12:35.297Z,61.16
2023-03-04T12:15:08.394Z,61.71
2023-03-04T12:17:56.517Z,61.30
2023-03-04T12:20:30.425Z,60.79
2023-03-04T12:23:25.161Z,64.32
2023-03-04T12:25:57.834Z,63.75
2023-03-04T12:28:55.800Z,66.82
2023-03-04T12:31:43.187Z,66.90
2023-03-04T12:34:34.100Z,67.04
2023-03-04T12:37:29.037Z,66.38
2023-03-04T12:40:38.938Z,66.49
2023-03-04T12:43:24.086Z,64.57
2023-03-04T12:46:23.595Z,65.18
2023-03-04T12:49:21.300Z,64.04
2023-03-04T12:51:57.682Z,64.25
2023-03-04T12:54:52.941Z,65.25
2023-03-04T12:57:23.876Z,66.37
2023-03-04T13:00:09.192Z,66.44
2023-03-04T13:02:42.373Z,68.00
2023-03-04T13:05:24.646Z,67.28
2023-03-04T13:08:30.984Z,66.50
2023-03-04T13:11:26.412Z,67.17
2023-03-04T13:14:15.048Z,65.76
2023-03-04T13:16:44.135Z,66.29
2023-03-04T13:19:48.551Z,67.53
2023-03-04T13:22:27.895Z,67.97
2023-03-04T13:24:55.364Z,67.00
2023-03-04T13:27:49.095Z,67.41
2023-03-04T13:30:31.363Z,66.84
2023-03-04T13:33:19.197Z,67.02
2023-03-04T13:35:49.439Z,68.09
2023-03-04T13:38:28.755Z,69.23
2023-03-04T13:41:20.259Z,68.13
2023-03-04T13:43:55.096Z,67.92
2023-03-04T13:46:24.787Z,67.19
2023-03-04T13:48:51.862Z,69.52
2023-03-04T13:51:32.883Z,69.22
2023-03-04T13:53:59.876Z,68.85
2023-03-04T13:56:29.961Z,68.47
2023-03-04T13:59:09.218Z,68.95
2023-03-04T14:01:37.577Z,69.39
2023-03-04T14:04:27.439Z,69.93
2023-03-04T14:07:00.115Z,69.59
2023-03-04T14:09:35.409Z,70.36
2023-03-04T14:12:13.174Z,69.97
2023-03-04T14:14:51.912Z,70.64
2023-03-04T14:17:25.816Z,71.41
2023-03-04T14:19:53.987Z,71.95
2023-03-04T14:22:25.533Z,71.35
2023-03-04T14:25:16.734Z,70.43
2023-03-04T14:27:44.422Z,70.23
2023-03-04T14:30:40.824Z,72.34
2023-03-04T14:33:14.222Z,70.54
2023-03-04T14:35:51.178Z,72.07
2023-03-04T14:38:30.309Z,72.65
2023-03-04T14:41:02.707Z,70.99
2023-03-04T14:43:33.528Z,71.46
2023-03-04T14:46:02.726Z,71.96
2023-03-04T14:48:33.871Z,71.63
2023-03-04T14:51:02.762Z,71.14
2023-03-04T14:53:32.726Z,70.60
2023-03-04T14:56:08.451Z,70.77
2023-03-04T14:58:37.791Z,70.40
2023-03-04T15:01:21.004Z,70.65
2023-03-04T15:04:00.787Z,71.74
2023-03-04T15:06:31.438Z,71.33
2023-03-04T15:09:07.754Z,71.50
2023-03-04T15:12:05.617Z,72.18
2023-03-04T15:14:56.766Z,72.71
2023-03-04T15:17:40.694Z,71.00
2023-03-04T15:20:07.608Z,71.78
2023-03-04T15:23:01.362Z,71.22
2023-03-04T15:25:29.653Z,70.95
2023-03-04T15:27:58.038Z,71.08
2023-03-04T15:30:31.158Z,72.10
2023-03-04T15:32:59.369Z,73.19
2023-03-04T15:35:32.121Z,73.01
2023-03-04T15:38:00.101Z,73.26
2023-03-04T15:40:32.839Z,73.00
2023-03-04T15:43:03.604Z,73.18
2023-03-04T15:45:36.062Z,72.86
2023-03-04T15:48:08.007Z,72.32
2023-03-04T15:50:42.341Z,71.88
2023-03-04T15:53:33.961Z,72.08
2023-03-04T15:56:02.677Z,73.85
2023-03-04T15:58:32.138Z,72.73
2023-03-04T16:01:01.014Z,72.56
2023-03-04T16:03:28.030Z,72.71
2023-03-04T16:05:55.090Z,72.09
2023-03-04T16:08:25.162Z,72.21
2023-03-04T16:10:53.020Z,72.52
2023-03-04T16:13:24.220Z,73.44
2023-03-04T16:15:51.577Z,72.50
2023-03-04T16:18:19.053Z,72.41
2023-03-04T16:20:49.053Z,72.51
2023-03-04T16:23:21.188Z,72.43
2023-03-04T16:25:51.288Z,72.42
2023-03-04T16:28:18.416Z,73.15
2023-03-04T16:30:45.622Z,72.98
2023-03-04T16:33:15.728Z,73.55
2023-03-04T16:35:45.693Z,73.24
2023-03-04T16:38:28.644Z,73.25
2023-03-04T16:40:56.597Z,73.14
2023-03-04T16:43:23.974Z,72.87
2023-03-04T16:45:51.067Z,73.05
2023-03-04T16:48:18.098Z,72.68
2023-03-04T16:50:45.197Z,72.47
2023-03-04T16:53:32.012Z,72.72
2023-03-04T16:56:04.312Z,71.91
2023-03-04T16:58:31.363Z,72.48
2023-03-04T17:00:58.563Z,72.11
2023-03-04T17:03:25.612Z,72.29
2023-03-04T17:05:52.645Z,72.58
2023-03-04T17:08:19.711Z,72.27
2023-03-04T17:10:47.512Z,72.33
2023-03-04T17:13:15.104Z,72.40
2023-03-04T17:15:47.001Z,72.27
2023-03-04T17:18:14.287Z,72.10
2023-03-04T17:20:41.358Z,72.52
2023-03-04T17:23:08.335Z,72.72
2023-03-04T17:25:35.324Z,72.24
2023-03-04T17:28:02.454Z,72.50
2023-03-04T17:30:29.567Z,72.02
2023-03-04T17:32:56.597Z,72.73
2023-03-04T17:35:25.788Z,71.66
2023-03-04T17:37:52.782Z,72.10
2023-03-04T17:40:20.208Z,71.92
2023-03-04T17:42:47.265Z,72.33
2023-03-04T17:45:14.251Z,72.43
2023-03-04T17:47:41.374Z,71.94
2023-03-04T17:50:09.233Z,72.11
2023-03-04T17:52:36.271Z,72.09
2023-03-04T17:55:03.412Z,71.84
2023-03-04T17:57:30.742Z,71.95
2023-03-04T17:59:57.815Z,72.26
2023-03-04T18:02:24.928Z,72.14
2023-03-04T18:04:52.013Z,71.83
2023-03-04T18:07:19.071Z,72.29
2023-03-04T18:09:47.997Z,72.12
2023-03-04T18:12:16.183Z,71.85
2023-03-04T18:14:43.303Z,71.58
2023-03-04T18:17:10.285Z,71.37
2023-03-04T18:19:37.293Z,70.97
2023-03-04T18:22:04.246Z,71.12
2023-03-04T18:24:31.378Z,71.46
2023-03-04T18:26:58.474Z,71.10
2023-03-04T18:29:25.454Z,71.01
2023-03-04T18:31:52.481Z,71.03
2023-03-04T18:34:20.202Z,70.83
2023-03-04T18:36:48.318Z,70.88
2023-03-04T18:39:17.618Z,71.34
2023-03-04T18:41:44.988Z,70.85
2023-03-04T18:44:12.117Z,70.77
2023-03-04T18:46:50.556Z,71.01
2023-03-04T18:49:20.356Z,70.94
2023-03-04T18:51:47.590Z,70.90
2023-03-04T18:54:14.634Z,71.15
2023-03-04T18:56:52.492Z,70.89
2023-03-04T18:59:33.475Z,70.91
2023-03-04T19:02:05.170Z,70.96
2023-03-04T19:04:32.298Z,70.97
2023-03-04T19:07:00.483Z,70.37
2023-03-04T19:09:27.800Z,70.64
2023-03-04T19:11:54.805Z,70.68
2023-03-04T19:14:21.831Z,70.54
2023-03-04T19:16:48.880Z,70.83
2023-03-04T19:19:16.908Z,70.71
2023-03-04T19:21:43.911Z,70.57
2023-03-04T19:24:11.012Z,70.76
2023-03-04T19:26:38.351Z,70.27
2023-03-04T19:29:06.525Z,70.22
2023-03-04T19:31:34.072Z,70.10
2023-03-04T19:34:01.125Z,69.84
2023-03-04T19:36:28.203Z,69.98
2023-03-04T19:38:55.701Z,69.65
2023-03-04T19:41:23.263Z,69.21
2023-03-04T19:43:50.305Z,69.09
2023-03-04T19:46:17.403Z,69.24
2023-03-04T19:48:45.298Z,68.73
2023-03-04T19:51:20.377Z,68.63
2023-03-04T19:53:47.867Z,68.60
2023-03-04T19:56:14.837Z,68.46
2023-03-04T19:58:41.872Z,68.42
2023-03-04T20:01:30.171Z,68.29
2023-03-04T20:03:59.678Z,68.11
2023-03-04T20:06:27.405Z,68.08
2023-03-04T20:08:59.910Z,68.17
2023-03-04T20:11:28.518Z,68.33
2023-03-04T20:13:58.459Z,68.17
2023-03-04T20:16:26.046Z,67.90
2023-03-04T20:18:53.288Z,68.05
2023-03-04T20:21:20.640Z,68.05
2023-03-04T20:23:47.608Z,67.74
2023-03-04T20:26:14.667Z,67.45
2023-03-04T20:28:50.649Z,67.76
2023-03-04T20:31:22.373Z,67.68
2023-03-04T20:33:50.554Z,67.71
2023-03-04T20:36:22.733Z,67.78
2023-03-04T20:38:53.935Z,67.54
2023-03-04T20:41:26.348Z,67.74
2023-03-04T20:43:53.528Z,67.31
2023-03-04T20:46:39.287Z,67.47
2023-03-04T20:49:10.012Z,66.98
2023-03-04T20:51:37.810Z,67.05
2023-03-04T20:54:06.439Z,67.21
2023-03-04T20:56:34.493Z,67.20
2023-03-04T20:59:04.543Z,67.32
2023-03-04T21:01:31.793Z,67.17
2023-03-04T21:04:00.327Z,66.59
2023-03-04T21:06:31.131Z,66.98
2023-03-04T21:09:03.622Z,66.97
2023-03-04T21:11:30.727Z,67.14
2023-03-04T21:13:57.984Z,66.70
2023-03-04T21:16:28.098Z,66.87
2023-03-04T21:18:55.487Z,67.08
2023-03-04T21:21:25.081Z,67.20
2023-03-04T21:23:54.447Z,66.38
2023-03-04T21:26:25.504Z,66.40
2023-03-04T21:28:53.917Z,66.16
2023-03-04T21:31:26.056Z,66.07
2023-03-04T21:33:55.219Z,66.56
2023-03-04T21:36:23.369Z,65.83
2023-03-04T21:38:50.693Z,65.65
2023-03-04T21:41:20.782Z,65.85
2023-03-04T21:43:48.638Z,65.73
2023-03-04T21:46:17.345Z,65.61
2023-03-04T21:48:45.055Z,65.72
2023-03-04T21:51:14.561Z,65.23
2023-03-04T21:53:43.489Z,65.25
2023-03-04T21:56:12.353Z,65.59
2023-03-04T21:58:42.366Z,65.40
2023-03-04T22:01:21.126Z,65.69
2023-03-04T22:03:50.093Z,65.20
2023-03-04T22:06:21.979Z,65.39
2023-03-04T22:08:50.862Z,65.63
2023-03-04T22:11:18.317Z,65.08
2023-03-04T22:13:45.523Z,65.41
2023-03-04T22:16:12.635Z,65.21
2023-03-04T22:18:40.973Z,64.93
2023-03-04T22:21:12.579Z,65.00
2023-03-04T22:23:40.303Z,65.18
2023-03-04T22:26:30.164Z,64.71
2023-03-04T22:28:57.580Z,64.82
2023-03-04T22:31:31.062Z,64.75
2023-03-04T22:34:02.434Z,64.94
2023-03-04T22:36:30.888Z,64.81
2023-03-04T22:38:58.251Z,65.11
2023-03-04T22:41:25.476Z,65.28
2023-03-04T22:43:52.586Z,64.94
2023-03-04T22:46:29.311Z,65.23
2023-03-04T22:48:58.845Z,65.13
2023-03-04T22:51:27.545Z,64.72
2023-03-04T22:53:55.861Z,65.38
2023-03-04T22:56:23.216Z,64.82
2023-03-04T22:58:50.366Z,64.99
2023-03-04T23:01:18.727Z,64.84
2023-03-04T23:03:48.919Z,65.04
2023-03-04T23:06:22.115Z,64.93
2023-03-04T23:08:50.289Z,65.16
2023-03-04T23:11:26.618Z,65.07
2023-03-04T23:13:54.753Z,64.83
2023-03-04T23:16:23.455Z,64.97
2023-03-04T23:18:50.696Z,64.40
2023-03-04T23:21:20.731Z,64.85
2023-03-04T23:23:48.510Z,64.77
2023-03-04T23:26:15.521Z,64.79
2023-03-04T23:28:42.536Z,64.97
2023-03-04T23:31:10.352Z,64.42
2023-03-04T23:33:37.448Z,64.72
2023-03-04T23:36:04.662Z,64.58
2023-03-04T23:38:31.671Z,64.48
2023-03-04T23:40:58.705Z,64.53
2023-03-04T23:43:27.340Z,64.87
2023-03-04T23:45:54.417Z,64.76
2023-03-04T23:48:21.445Z,64.67
2023-03-04T23:50:53.363Z,64.70
2023-03-04T23:53:20.528Z,64.48
2023-03-04T23:55:47.589Z,64.80
2023-03-04T23:58:14.961Z,64.54
